Time;durP1;ratioP1;P1;durP2;ratioP2;P2;SDS_P1;SDS_P2;PMS_P1;PMS_P2;Temp;Humidity;BMP_temperature;BMP_pressure;BME280_temperature;BME280_humidity;BME280_pressure;Samples;Min_cycle;Max_cycle;Signal;HPM_P1;HPM_P2
2022/06/05 00:00:25;;;;;;;5.25;2.40;;;;;;;15.37;100.00;98725.25;15274898;19;20397;-54
2022/06/05 00:05:34;;;;;;;3.20;2.50;;;;;;;15.36;100.00;98718.16;15280523;19;20057;-54
2022/06/05 00:10:42;;;;;;;3.53;2.63;;;;;;;15.37;100.00;98713.56;15277560;19;20014;-52
2022/06/05 00:15:50;;;;;;;2.55;2.28;;;;;;;15.39;100.00;98717.78;15275113;19;20049;-56
2022/06/05 00:20:55;;;;;;;3.13;2.63;;;;;;;15.39;100.00;98723.22;15284049;19;20014;-55
2022/06/05 00:26:11;;;;;;;2.60;2.40;;;;;;;15.42;100.00;98716.56;15296545;19;20010;-54
2022/06/05 00:31:25;;;;;;;4.32;2.70;;;;;;;15.41;100.00;98714.88;15288463;19;20090;-56
2022/06/05 00:37:02;;;;;;;4.93;2.80;;;;;;;15.43;100.00;98718.25;15296363;19;20019;-55
2022/06/05 00:42:11;;;;;;;3.58;3.00;;;;;;;15.38;100.00;98716.09;15290324;19;20581;-53
2022/06/05 00:47:22;;;;;;;3.55;2.80;;;;;;;15.41;100.00;98710.31;15288185;19;20853;-54
2022/06/05 00:52:30;;;;;;;3.57;3.23;;;;;;;15.43;100.00;98722.84;15292551;19;20432;-54
2022/06/05 00:57:37;;;;;;;4.28;3.35;;;;;;;15.44;100.00;98711.78;15041600;19;5001213;-56
2022/06/05 01:02:47;;;;;;;3.53;3.22;;;;;;;15.49;100.00;98700.38;15290732;19;20026;-51
2022/06/05 01:07:53;;;;;;;5.00;3.38;;;;;;;15.38;100.00;98694.38;15288559;19;20506;-54
2022/06/05 01:13:06;;;;;;;4.32;3.00;;;;;;;15.24;100.00;98671.63;15289806;19;20086;-55
2022/06/05 01:18:23;;;;;;;4.25;2.65;;;;;;;14.99;100.00;98657.47;15291490;19;20019;-56
2022/06/05 01:23:47;;;;;;;3.90;3.15;;;;;;;14.92;100.00;98659.22;15289700;19;20017;-53
2022/06/05 01:28:59;;;;;;;4.05;2.92;;;;;;;14.77;100.00;98665.44;15293861;19;20014;-52
2022/06/05 01:34:23;;;;;;;4.20;2.72;;;;;;;14.69;100.00;98664.69;15283661;19;20022;-54
2022/06/05 01:39:37;;;;;;;3.22;2.60;;;;;;;14.54;100.00;98680.84;15288723;19;20394;-56
2022/06/05 01:44:49;;;;;;;3.63;3.03;;;;;;;14.44;100.00;98673.78;15291397;19;20122;-53
2022/06/05 01:49:59;;;;;;;3.97;3.38;;;;;;;14.25;100.00;98661.53;15294013;19;20034;-55
2022/06/05 01:55:23;;;;;;;4.03;3.50;;;;;;;14.11;100.00;98660.44;15281287;19;20018;-57
2022/06/05 02:00:32;;;;;;;5.05;4.00;;;;;;;14.09;100.00;98658.94;15292455;19;20014;-53
2022/06/05 02:05:43;;;;;;;4.20;3.80;;;;;;;14.08;100.00;98660.81;15289178;19;20015;-56
2022/06/05 02:10:54;;;;;;;5.45;3.92;;;;;;;14.06;100.00;98649.28;15282032;19;20036;-53
2022/06/05 02:16:02;;;;;;;5.55;4.10;;;;;;;14.07;100.00;98653.69;15281776;19;20031;-55
2022/06/05 02:21:07;;;;;;;6.00;5.40;;;;;;;14.11;100.00;98670.47;15286423;19;20086;-54
2022/06/05 02:26:13;;;;;;;6.50;5.90;;;;;;;14.17;100.00;98686.81;15281406;19;20018;-54
2022/06/05 02:31:30;;;;;;;6.10;5.50;;;;;;;14.22;100.00;98686.31;15285280;19;20018;-53
2022/06/05 02:36:46;;;;;;;5.93;4.93;;;;;;;14.16;100.00;98678.88;15286904;19;20042;-52
2022/06/05 02:41:57;;;;;;;5.88;5.28;;;;;;;14.09;100.00;98683.34;15279160;19;20026;-52
2022/06/05 02:47:19;;;;;;;5.38;4.88;;;;;;;13.94;100.00;98692.19;15283289;19;20028;-52
2022/06/05 02:52:24;;;;;;;;;;;;;;;13.91;100.00;98686.31;15283961;19;20015;-52
2022/06/05 02:57:29;;;;;;;6.28;4.70;;;;;;;13.68;100.00;98696.03;15280569;19;19941;-51
2022/06/05 03:07:54;;;;;;;6.10;5.50;;;;;;;13.49;100.00;98680.19;15286990;19;20046;-51
2022/06/05 03:13:04;;;;;;;6.00;5.40;;;;;;;13.50;100.00;98673.75;15280218;19;20018;-54
2022/06/05 03:18:15;;;;;;;7.38;6.70;;;;;;;13.48;100.00;98664.97;15295739;19;20018;-56
2022/06/05 03:23:20;;;;;;;7.95;7.25;;;;;;;13.46;100.00;98667.00;15290710;19;20046;-54
2022/06/05 03:28:28;;;;;;;8.35;7.55;;;;;;;13.48;100.00;98673.91;15287986;19;20027;-56
2022/06/05 03:33:37;;;;;;;9.32;8.43;;;;;;;13.51;100.00;98676.28;15289797;19;20022;-56
2022/06/05 03:38:43;;;;;;;9.88;8.93;;;;;;;13.59;100.00;98671.84;15293504;19;20026;-52
2022/06/05 03:43:49;;;;;;;8.68;7.80;;;;;;;13.64;100.00;98653.22;15290055;19;20647;-55
2022/06/05 03:48:57;;;;;;;8.98;7.95;;;;;;;13.64;100.00;98634.28;15279870;19;20616;-55
2022/06/05 03:54:03;;;;;;;8.82;7.93;;;;;;;13.65;100.00;98623.28;15283368;19;20013;-57
2022/06/05 03:59:10;;;;;;;10.10;8.60;;;;;;;13.71;100.00;98613.59;15284948;19;20031;-58
2022/06/05 04:04:19;;;;;;;9.80;8.90;;;;;;;13.81;100.00;98614.25;15269981;19;20034;-56
2022/06/05 04:09:25;;;;;;;11.55;8.50;;;;;;;13.89;100.00;98601.66;15275031;19;20021;-57
2022/06/05 04:14:31;;;;;;;9.88;9.00;;;;;;;13.97;100.00;98599.75;15276104;19;20364;-52
2022/06/05 04:19:40;;;;;;;9.35;8.45;;;;;;;14.07;100.00;98587.84;15273441;19;20352;-53
2022/06/05 04:24:47;;;;;;;9.82;8.82;;;;;;;14.11;100.00;98568.34;15276879;19;20014;-55
2022/06/05 04:29:55;;;;;;;9.88;8.88;;;;;;;14.21;100.00;98562.69;15277169;19;20042;-52
2022/06/05 04:35:04;;;;;;;11.32;8.60;;;;;;;14.36;100.00;98570.00;15272529;19;20082;-54
2022/06/05 04:40:13;;;;;;;9.10;8.20;;;;;;;14.50;100.00;98574.63;15281155;19;20014;-51
2022/06/05 04:45:19;;;;;;;9.02;8.20;;;;;;;14.64;100.00;98587.38;15289311;19;20039;-85
2022/06/05 04:50:36;;;;;;;6.28;5.68;;;;;;;14.77;100.00;98589.50;15362435;19;20040;-86
2022/06/05 04:55:49;;;;;;;6.43;5.68;;;;;;;14.84;100.00;98608.59;15366777;19;20005;-86
2022/06/05 05:00:57;;;;;;;6.65;5.88;;;;;;;14.92;100.00;98608.53;15365010;19;20007;-85
2022/06/05 05:06:09;;;;;;;6.72;5.60;;;;;;;15.00;100.00;98615.72;15367776;19;20042;-85
2022/06/05 05:11:14;;;;;;;5.97;5.38;;;;;;;15.14;100.00;98610.50;15378889;19;20003;-85
2022/06/05 05:16:19;;;;;;;7.65;6.07;;;;;;;15.38;100.00;98623.78;15377269;19;20019;-86
2022/06/05 05:21:28;;;;;;;8.88;7.10;;;;;;;15.72;100.00;98605.22;15378323;19;20010;-86
2022/06/05 05:26:36;;;;;;;8.18;5.80;;;;;;;15.99;100.00;98595.53;15381053;19;20052;-86
2022/06/05 05:31:44;;;;;;;5.97;5.38;;;;;;;16.25;100.00;98585.13;15376384;19;20015;-87
2022/06/05 05:36:53;;;;;;;5.63;5.05;;;;;;;16.54;100.00;98577.88;15368202;19;20010;-89
2022/06/05 05:42:08;;;;;;;5.22;4.72;;;;;;;16.76;100.00;98581.38;15377186;19;20013;-90
2022/06/05 05:47:20;;;;;;;6.53;4.72;;;;;;;16.94;100.00;98589.94;15377717;19;20002;-90
2022/06/05 05:52:29;;;;;;;5.10;4.60;;;;;;;17.09;100.00;98583.56;15372884;19;20044;-88
2022/06/05 05:57:35;;;;;;;7.78;4.85;;;;;;;17.26;100.00;98575.91;15350455;19;20382;-58
2022/06/05 06:02:41;;;;;;;5.45;4.28;;;;;;;17.40;100.00;98565.91;15286615;19;20109;-58
2022/06/05 06:07:49;;;;;;;4.95;3.88;;;;;;;17.54;100.00;98545.88;15283866;19;20475;-54
2022/06/05 06:12:54;;;;;;;4.13;3.72;;;;;;;17.67;100.00;98528.72;15278622;19;20040;-55
2022/06/05 06:17:59;;;;;;;3.63;3.33;;;;;;;17.84;100.00;98522.91;15281212;19;20489;-55
2022/06/05 06:23:07;;;;;;;4.93;3.22;;;;;;;17.99;100.00;98526.31;15284749;19;20018;-56
2022/06/05 06:28:13;;;;;;;3.45;3.15;;;;;;;18.15;100.00;98524.25;15275866;19;20042;-57
2022/06/05 06:33:18;;;;;;;3.22;2.90;;;;;;;18.35;100.00;98518.81;15279662;19;20487;-57
2022/06/05 06:38:26;;;;;;;3.30;2.95;;;;;;;18.47;100.00;98505.38;15279049;19;20018;-58
2022/06/05 06:43:31;;;;;;;3.55;3.00;;;;;;;18.65;100.00;98502.00;15274270;19;20421;-57
2022/06/05 06:48:37;;;;;;;3.15;2.78;;;;;;;18.88;100.00;98495.22;15273100;19;20600;-64
2022/06/05 06:53:45;;;;;;;3.42;2.80;;;;;;;19.05;100.00;98482.84;15280752;19;20018;-63
2022/06/05 06:58:51;;;;;;;2.95;2.60;;;;;;;19.24;100.00;98470.16;15275818;19;20101;-63
2022/06/05 07:03:56;;;;;;;3.80;2.58;;;;;;;19.50;100.00;98464.78;15284676;19;20026;-63
2022/06/05 07:09:04;;;;;;;2.53;2.28;;;;;;;19.68;100.00;98467.66;15280218;19;20437;-64
2022/06/05 07:14:09;;;;;;;2.30;2.10;;;;;;;19.89;100.00;98476.59;15270847;19;20482;-65
2022/06/05 07:19:15;;;;;;;2.80;1.95;;;;;;;20.12;100.00;98477.88;15279926;19;20014;-65
2022/06/05 07:24:23;;;;;;;2.92;1.95;;;;;;;20.31;100.00;98471.41;15278692;19;20039;-64
2022/06/05 07:29:29;;;;;;;3.28;1.80;;;;;;;20.42;100.00;98472.59;15277528;19;20022;-64
2022/06/05 07:40:19;;;;;;;3.25;1.65;;;;;;;20.79;100.00;98460.88;15277776;19;19982;-63
2022/06/05 07:45:24;;;;;;;2.15;1.67;;;;;;;20.97;100.00;98454.59;15274136;19;20317;-64
2022/06/05 07:50:34;;;;;;;4.28;1.50;;;;;;;21.21;100.00;98443.75;15276590;19;20022;-63
2022/06/05 07:55:42;;;;;;;2.25;1.50;;;;;;;21.38;100.00;98447.56;15278897;19;20007;-64
2022/06/05 08:00:48;;;;;;;1.67;1.35;;;;;;;21.55;100.00;98450.50;15277328;19;20010;-64
2022/06/05 08:05:54;;;;;;;1.77;1.20;;;;;;;21.61;100.00;98450.66;15273128;19;20014;-64
2022/06/05 08:11:08;;;;;;;3.15;1.40;;;;;;;21.71;100.00;98445.44;15277468;19;20594;-62
2022/06/05 08:16:16;;;;;;;2.65;1.30;;;;;;;22.02;100.00;98446.25;15275506;19;20018;-62
2022/06/05 08:21:21;;;;;;;2.03;1.20;;;;;;;22.37;100.00;98447.34;15265184;19;20026;-61
2022/06/05 08:26:29;;;;;;;1.58;1.20;;;;;;;22.54;100.00;98444.75;15275054;19;20015;-62
2022/06/05 08:31:35;;;;;;;1.40;1.15;;;;;;;22.66;100.00;98425.56;15274278;19;20437;-63
2022/06/05 08:36:41;;;;;;;2.50;1.27;;;;;;;22.75;100.00;98443.31;15268246;19;20073;-62
2022/06/05 08:42:04;;;;;;;1.23;1.10;;;;;;;22.91;100.00;98458.22;15279635;19;20031;-63
2022/06/05 08:47:18;;;;;;;1.77;1.02;;;;;;;23.09;100.00;98470.97;15287780;19;20047;-63
2022/06/05 08:52:27;;;;;;;1.25;1.05;;;;;;;23.28;100.00;98457.13;15287039;19;20014;-64
2022/06/05 08:57:41;;;;;;;1.65;1.00;;;;;;;23.42;100.00;98447.50;15288270;19;20027;-64
2022/06/05 09:02:50;;;;;;;1.92;1.02;;;;;;;23.57;100.00;98432.38;15292710;19;20035;-63
2022/06/05 09:08:00;;;;;;;1.70;1.10;;;;;;;23.64;100.00;98427.53;15284284;19;21067;-64
2022/06/05 09:13:15;;;;;;;1.73;1.00;;;;;;;23.80;100.00;98404.75;15289822;19;20656;-64
2022/06/05 09:18:23;;;;;;;2.03;1.10;;;;;;;23.99;100.00;98386.13;15289345;19;20019;-64
2022/06/05 09:23:34;;;;;;;1.38;1.27;;;;;;;24.13;100.00;98380.28;15285887;19;20034;-63
2022/06/05 09:29:04;;;;;;;2.35;1.00;;;;;;;24.24;100.00;98381.25;15286538;19;20015;-65
2022/06/05 09:34:15;;;;;;;1.83;1.13;;;;;;;24.30;100.00;98392.09;15289692;19;20085;-64
2022/06/05 09:39:29;;;;;;;1.20;1.10;;;;;;;24.39;100.00;98413.72;15287009;19;20026;-65
2022/06/05 09:44:51;;;;;;;1.85;0.80;;;;;;;24.51;100.00;98408.09;15284242;19;20504;-64
2022/06/05 09:50:00;;;;;;;1.35;0.82;;;;;;;24.50;100.00;98401.78;15285353;19;20038;-64
2022/06/05 09:55:18;;;;;;;1.20;1.10;;;;;;;24.47;100.00;98385.75;15277962;19;20074;-64
2022/06/05 10:00:34;;;;;;;2.72;1.17;;;;;;;24.58;100.00;98381.19;15284601;19;20011;-65
2022/06/05 10:05:45;;;;;;;1.60;1.00;;;;;;;24.61;100.00;98375.19;15287555;19;20031;-66
2022/06/05 10:10:56;;;;;;;1.70;1.10;;;;;;;24.70;100.00;98364.59;15288722;19;20027;-65
2022/06/05 10:16:21;;;;;;;1.55;1.10;;;;;;;24.85;100.00;98342.78;15280082;19;20015;-63
2022/06/05 10:21:38;;;;;;;1.60;0.80;;;;;;;25.08;100.00;98338.06;15282220;19;20021;-64
2022/06/05 10:26:51;;;;;;;1.27;1.00;;;;;;;25.33;100.00;98322.88;15281310;19;20026;-63
2022/06/05 10:32:06;;;;;;;1.20;0.98;;;;;;;25.57;98.23;98319.84;15287245;19;20006;-62
2022/06/05 10:37:23;;;;;;;1.75;1.10;;;;;;;25.82;97.83;98322.78;15280725;19;20094;-61
2022/06/05 10:42:37;;;;;;;1.45;1.00;;;;;;;25.97;89.77;98301.91;15285499;19;20002;-64
2022/06/05 10:47:53;;;;;;;0.80;0.80;;;;;;;26.13;91.75;98303.72;15277910;19;20453;-63
2022/06/05 10:53:09;;;;;;;1.80;0.98;;;;;;;26.35;91.86;98297.22;15284584;19;20038;-59
2022/06/05 10:58:21;;;;;;;1.55;1.00;;;;;;;26.46;85.78;98287.06;15283399;19;20035;-61
2022/06/05 11:03:40;;;;;;;1.50;1.00;;;;;;;26.55;84.40;98290.97;15281783;19;20050;-64
2022/06/05 11:08:58;;;;;;;1.48;1.00;;;;;;;26.69;81.29;98285.78;15280713;19;20018;-62
2022/06/05 11:14:14;;;;;;;3.45;1.10;;;;;;;26.86;85.20;98270.94;15281885;19;20018;-63
2022/06/05 11:19:46;;;;;;;1.65;1.00;;;;;;;27.00;78.88;98262.94;15278120;19;20006;-62
2022/06/05 11:24:53;;;;;;;0.90;0.90;;;;;;;27.14;82.24;98253.03;15284000;19;20089;-63
2022/06/05 11:30:05;;;;;;;2.88;1.00;;;;;;;27.32;76.22;98237.00;15276856;19;20043;-63
2022/06/05 11:35:22;;;;;;;1.15;0.88;;;;;;;27.29;74.56;98230.09;15268928;19;20479;-63
2022/06/05 11:40:46;;;;;;;1.52;1.10;;;;;;;27.23;69.15;98225.63;15280044;19;20559;-63
2022/06/05 11:45:56;;;;;;;0.98;0.82;;;;;;;27.35;70.47;98203.25;15282212;19;20014;-63
2022/06/05 11:51:12;;;;;;;1.55;0.90;;;;;;;27.50;68.03;98199.66;15272034;19;20018;-63
2022/06/05 11:56:36;;;;;;;1.00;0.80;;;;;;;27.60;65.52;98185.81;15278189;19;20508;-63
2022/06/05 12:01:46;;;;;;;2.15;0.75;;;;;;;27.53;63.30;98172.28;15280475;19;20006;-63
2022/06/05 12:06:58;;;;;;;4.07;0.73;;;;;;;27.63;63.91;98156.78;15275747;19;20023;-63
2022/06/05 12:12:13;;;;;;;0.98;0.90;;;;;;;27.61;63.64;98147.94;15279660;19;20027;-61
2022/06/05 12:17:24;;;;;;;0.70;0.70;;;;;;;27.54;60.50;98145.44;15279414;19;20810;-61
2022/06/05 12:22:37;;;;;;;2.50;0.82;;;;;;;27.42;61.63;98131.06;15287261;19;20042;-62
2022/06/05 12:27:48;;;;;;;1.00;0.70;;;;;;;27.48;63.35;98121.66;15290192;19;20035;-61
2022/06/05 12:32:59;;;;;;;0.88;0.80;;;;;;;27.51;62.69;98115.56;15283794;19;20606;-62
2022/06/05 12:38:36;;;;;;;3.20;0.90;;;;;;;27.44;63.25;98117.78;15281364;19;20394;-62
2022/06/05 12:44:00;;;;;;;1.42;0.90;;;;;;;27.34;63.98;98122.19;15290655;19;20015;-62
2022/06/05 12:49:23;;;;;;;1.98;0.80;;;;;;;27.49;68.05;98126.06;15286421;19;20018;-61
2022/06/05 12:54:41;;;;;;;1.25;0.98;;;;;;;27.45;65.64;98119.47;15287127;19;20020;-58
2022/06/05 13:00:16;;;;;;;1.10;0.90;;;;;;;27.47;67.97;98108.94;15284844;19;20530;-62
2022/06/05 13:05:32;;;;;;;1.98;1.00;;;;;;;27.28;68.19;98109.50;15288631;19;20569;-62
2022/06/05 13:10:44;;;;;;;1.17;1.10;;;;;;;27.02;67.43;98105.94;15275599;19;20015;-61
2022/06/05 13:15:54;;;;;;;2.67;1.20;;;;;;;27.19;70.20;98095.41;15286052;19;20764;-62
2022/06/05 13:21:22;;;;;;;1.27;1.15;;;;;;;27.27;69.33;98094.00;15286981;19;20018;-60
2022/06/05 13:26:41;;;;;;;1.05;0.98;;;;;;;27.39;67.99;98088.19;15267167;19;20031;-61
2022/06/05 13:31:56;;;;;;;1.05;0.95;;;;;;;27.45;67.48;98086.28;15287767;19;20018;-60
2022/06/05 13:37:27;;;;;;;2.00;1.00;;;;;;;27.38;65.07;98070.75;15284135;19;20022;-58
2022/06/05 13:42:40;;;;;;;2.33;0.90;;;;;;;27.33;65.34;98081.00;15281713;19;20624;-63
2022/06/05 13:47:48;;;;;;;2.53;0.82;;;;;;;27.09;64.16;98075.25;15284879;19;20045;-59
2022/06/05 13:53:02;;;;;;;1.50;0.85;;;;;;;26.97;62.74;98079.13;15288812;19;20011;-61
2022/06/05 13:58:17;;;;;;;1.25;0.93;;;;;;;26.98;63.23;98078.03;15278030;19;20022;-59
2022/06/05 14:03:38;;;;;;;1.75;0.95;;;;;;;27.04;65.18;98065.84;15287440;19;20019;-59
2022/06/05 14:08:58;;;;;;;0.93;0.82;;;;;;;27.05;66.44;98077.72;15287206;19;20336;-60
2022/06/05 14:14:07;;;;;;;2.00;1.02;;;;;;;26.85;67.13;98078.56;15280311;19;20018;-61
2022/06/05 14:19:23;;;;;;;1.10;0.85;;;;;;;26.88;69.29;98072.47;15282541;19;20040;-58
2022/06/05 14:24:32;;;;;;;3.42;0.95;;;;;;;26.95;70.43;98061.97;15283611;19;20772;-59
2022/06/05 14:29:45;;;;;;;1.00;0.80;;;;;;;26.99;69.94;98068.59;15283993;19;20023;-61
2022/06/05 14:35:20;;;;;;;1.20;0.90;;;;;;;27.05;71.53;98067.50;15278892;19;20035;-62
2022/06/05 14:40:31;;;;;;;1.55;0.80;;;;;;;27.04;72.29;98071.38;15283591;19;20018;-59
2022/06/05 14:45:38;;;;;;;;;;;;;;;27.11;72.59;98071.09;15275022;19;20709;-60
2022/06/05 14:50:50;;;;;;;1.65;0.80;;;;;;;27.01;73.90;98071.91;15282773;19;19918;-59
2022/06/05 15:01:22;;;;;;;1.15;0.85;;;;;;;26.77;71.97;98072.44;15283855;19;20027;-60
2022/06/05 15:06:35;;;;;;;1.13;0.80;;;;;;;26.63;72.76;98076.88;15275116;19;20030;-59
2022/06/05 15:11:49;;;;;;;1.95;1.60;;;;;;;26.41;73.34;98072.41;15277391;19;20760;-60
2022/06/05 15:17:03;;;;;;;1.17;0.70;;;;;;;26.24;72.80;98069.91;15262888;19;20719;-62
2022/06/05 15:22:31;;;;;;;2.00;0.80;;;;;;;26.06;71.44;98079.47;15282915;19;20014;-60
2022/06/05 15:27:42;;;;;;;2.63;0.80;;;;;;;25.82;72.23;98074.44;15276264;19;20022;-58
2022/06/05 15:32:56;;;;;;;2.70;0.73;;;;;;;25.75;73.50;98079.38;15283232;19;20013;-59
2022/06/05 15:38:24;;;;;;;2.13;0.80;;;;;;;25.51;77.97;98079.81;15280439;19;20532;-61
2022/06/05 15:43:49;;;;;;;2.03;1.10;;;;;;;25.40;83.59;98086.34;15281006;19;20010;-61
2022/06/05 15:49:05;;;;;;;0.90;0.90;;;;;;;25.17;92.72;98096.69;15272811;19;20470;-61
2022/06/05 15:54:36;;;;;;;1.20;1.00;;;;;;;24.95;96.08;98090.44;15278614;19;20034;-59
2022/06/05 15:59:53;;;;;;;1.05;1.00;;;;;;;24.70;97.63;98073.44;15280029;19;20015;-60
2022/06/05 16:05:02;;;;;;;2.15;1.20;;;;;;;24.56;97.17;98081.28;15278703;19;20466;-60
2022/06/05 16:10:18;;;;;;;1.00;0.90;;;;;;;24.39;95.31;98080.56;15282451;19;20006;-58
2022/06/05 16:15:33;;;;;;;1.23;1.10;;;;;;;24.42;93.41;98080.03;15278847;19;20039;-61
2022/06/05 16:20:51;;;;;;;0.98;0.90;;;;;;;24.33;96.63;98085.19;15277148;19;20043;-61
2022/06/05 16:26:08;;;;;;;1.40;1.00;;;;;;;24.31;99.51;98090.13;15275837;19;20018;-58
2022/06/05 16:31:44;;;;;;;1.50;1.13;;;;;;;24.24;100.00;98089.47;15280983;19;21329;-60
2022/06/05 16:42:26;;;;;;;3.15;1.00;;;;;;;24.06;100.00;98102.50;15256728;19;20014;-58
2022/06/05 16:47:45;;;;;;;2.85;1.10;;;;;;;23.98;100.00;98079.03;15278147;19;20102;-56
2022/06/05 16:52:53;;;;;;;;;;;;;;;23.76;100.00;98073.50;15276496;19;20517;-61
2022/06/05 16:58:26;;;;;;;1.60;1.02;;;;;;;23.76;100.00;98073.50;15273636;19;19914;-58
2022/06/05 17:03:45;;;;;;;1.20;1.10;;;;;;;23.74;100.00;98069.34;15284793;19;20011;-60
2022/06/05 17:08:53;;;;;;;1.60;1.17;;;;;;;23.73;100.00;98067.69;15294819;19;20369;-59
2022/06/05 17:14:03;;;;;;;2.88;1.17;;;;;;;23.67;100.00;98064.03;15292396;19;20021;-58
2022/06/05 17:19:33;;;;;;;1.73;1.20;;;;;;;23.68;100.00;98054.69;15285475;19;20074;-59
2022/06/05 17:25:08;;;;;;;2.03;1.20;;;;;;;23.61;100.00;98049.41;15286638;19;20025;-59
2022/06/05 17:30:44;;;;;;;1.25;1.10;;;;;;;23.64;100.00;98043.38;15291304;19;20109;-59
2022/06/05 17:36:11;;;;;;;1.90;1.20;;;;;;;23.64;100.00;98037.88;15288804;19;20061;-55
2022/06/05 17:41:28;;;;;;;1.00;1.00;;;;;;;23.66;100.00;98034.88;15287224;19;20392;-57
2022/06/05 17:46:48;;;;;;;0.90;0.90;;;;;;;23.63;100.00;98036.22;15284324;19;20029;-59
2022/06/05 17:51:57;;;;;;;2.67;1.10;;;;;;;23.58;100.00;98044.41;15288675;19;20027;-60
2022/06/05 17:57:10;;;;;;;1.60;1.10;;;;;;;23.51;100.00;98044.63;15283018;19;20018;-59
2022/06/05 18:02:24;;;;;;;2.03;1.20;;;;;;;23.49;100.00;98059.69;15271685;19;20011;-56
2022/06/05 18:07:35;;;;;;;1.48;1.00;;;;;;;23.51;100.00;98043.75;15282698;19;20756;-57
2022/06/05 18:12:43;;;;;;;1.10;1.00;;;;;;;23.52;100.00;98054.50;15285634;19;20023;-60
2022/06/05 18:17:57;;;;;;;1.20;1.10;;;;;;;23.50;100.00;98053.09;15278388;19;20038;-57
2022/06/05 18:23:05;;;;;;;1.13;0.90;;;;;;;23.37;100.00;98049.63;15284938;19;20043;-59
2022/06/05 18:28:20;;;;;;;1.00;0.90;;;;;;;23.18;100.00;98027.06;15278961;19;20022;-59
2022/06/05 18:33:55;;;;;;;2.70;1.00;;;;;;;23.14;100.00;98014.09;14761323;19;10000448;-59
2022/06/05 18:39:03;;;;;;;1.58;1.20;;;;;;;23.05;100.00;98017.28;15283275;19;20022;-59
2022/06/05 18:44:15;;;;;;;1.65;1.13;;;;;;;22.96;100.00;98028.94;15284846;19;20014;-58
2022/06/05 18:49:27;;;;;;;1.38;1.20;;;;;;;22.94;100.00;98023.72;15283988;19;20087;-60
2022/06/05 18:54:40;;;;;;;1.98;1.33;;;;;;;22.87;100.00;98023.06;15283427;19;20018;-58
2022/06/05 18:59:48;;;;;;;1.83;1.20;;;;;;;22.82;100.00;98020.25;15281695;19;20018;-60
2022/06/05 19:05:00;;;;;;;2.15;1.30;;;;;;;22.73;100.00;98017.94;15271771;19;20043;-55
2022/06/05 19:10:14;;;;;;;2.95;1.23;;;;;;;22.65;100.00;98015.56;15285509;19;20017;-58
2022/06/05 19:15:33;;;;;;;1.42;1.10;;;;;;;22.56;100.00;98009.69;15282339;19;20086;-58
2022/06/05 19:20:48;;;;;;;;;;;;;;;22.45;100.00;98021.59;15279740;19;20014;-56
2022/06/05 19:25:54;;;;;;;1.33;1.10;;;;;;;22.34;100.00;98030.69;15280164;19;19935;-59
2022/06/05 19:31:01;;;;;;;1.27;1.10;;;;;;;22.23;100.00;98024.19;15282045;19;20018;-58
2022/06/05 19:41:38;;;;;;;1.48;1.10;;;;;;;22.04;100.00;98038.13;15281937;19;20074;-59
2022/06/05 19:53:28;;;;;;;2.63;1.27;;;;;;;21.80;100.00;98027.25;15270526;19;20010;-57
2022/06/05 19:58:44;;;;;;;2.53;1.20;;;;;;;21.67;100.00;98022.03;15280282;19;20014;-58
2022/06/05 20:04:11;;;;;;;1.80;1.20;;;;;;;21.58;100.00;98010.59;15278615;19;20029;-59
2022/06/05 20:09:33;;;;;;;1.75;1.20;;;;;;;21.47;100.00;98023.25;15270854;19;20021;-57
2022/06/05 20:14:48;;;;;;;1.67;1.30;;;;;;;21.42;100.00;98027.78;15278875;19;20803;-57
2022/06/05 20:20:17;;;;;;;1.42;1.23;;;;;;;21.36;100.00;98030.44;15279277;19;20020;-57
2022/06/05 20:25:33;;;;;;;4.75;1.20;;;;;;;21.21;100.00;98014.50;15277010;19;20352;-59
2022/06/05 20:30:51;;;;;;;1.80;1.40;;;;;;;21.15;100.00;98023.66;15280607;19;20011;-58
2022/06/05 20:36:05;;;;;;;1.58;1.48;;;;;;;21.11;100.00;98024.38;15275080;19;20006;-59
2022/06/05 20:41:28;;;;;;;2.28;1.50;;;;;;;21.11;100.00;98033.44;15276192;19;20019;-59
2022/06/05 20:46:33;;;;;;;1.52;1.40;;;;;;;;;;15289210;19;20031;-59
2022/06/05 20:51:38;;;;;;;1.92;1.73;;;;;;;21.04;100.00;98032.72;15295499;19;20025;-59
2022/06/05 20:56:51;;;;;;;1.55;1.40;;;;;;;21.01;100.00;98030.47;15289832;19;20014;-60
2022/06/05 21:02:00;;;;;;;2.03;1.60;;;;;;;20.94;100.00;98047.00;15294843;19;20018;-60
2022/06/05 21:07:13;;;;;;;2.13;1.75;;;;;;;20.88;100.00;98056.19;15291876;19;20010;-59
2022/06/05 21:17:43;;;;;;;2.13;1.90;;;;;;;20.81;100.00;98056.31;15286251;19;20015;-58
2022/06/05 21:22:50;;;;;;;1.83;1.70;;;;;;;20.78;100.00;98065.84;15292797;19;20024;-58
2022/06/05 21:27:58;;;;;;;2.10;1.90;;;;;;;20.70;100.00;98068.03;15287740;19;20018;-60
2022/06/05 21:33:06;;;;;;;2.10;1.80;;;;;;;20.66;100.00;98073.16;15290097;19;20117;-58
2022/06/05 21:38:15;;;;;;;1.92;1.70;;;;;;;20.65;100.00;98076.97;15285739;19;20035;-60
2022/06/05 21:43:26;;;;;;;2.17;1.90;;;;;;;20.58;100.00;98074.31;15282876;19;20010;-59
2022/06/05 21:48:35;;;;;;;2.10;1.90;;;;;;;20.52;100.00;98085.38;15287705;19;20823;-58
2022/06/05 21:53:44;;;;;;;3.20;1.75;;;;;;;20.47;100.00;98083.34;15288898;19;20025;-57
2022/06/05 21:58:53;;;;;;;2.63;1.88;;;;;;;20.47;100.00;98086.09;15288330;19;20612;-59
2022/06/05 22:03:59;;;;;;;2.40;1.88;;;;;;;20.45;100.00;98082.75;15286922;19;20356;-59
2022/06/05 22:09:08;;;;;;;2.53;1.83;;;;;;;20.42;100.00;98080.47;15290346;19;20019;-58
2022/06/05 22:14:18;;;;;;;2.25;1.63;;;;;;;20.38;100.00;98092.97;15286454;19;20030;-59
2022/06/05 22:19:25;;;;;;;2.08;1.70;;;;;;;20.30;100.00;98108.63;15273771;19;20357;-59
2022/06/05 22:24:30;;;;;;;1.42;1.33;;;;;;;20.18;100.00;98110.47;15286704;19;20023;-60
2022/06/05 22:29:39;;;;;;;2.40;1.30;;;;;;;20.02;100.00;98117.41;15290101;19;20352;-60
2022/06/05 22:34:44;;;;;;;1.73;1.08;;;;;;;19.83;100.00;98125.63;15284784;19;20014;-60
2022/06/05 22:39:49;;;;;;;1.02;1.00;;;;;;;19.63;100.00;98125.84;15286061;19;20015;-59
2022/06/05 22:44:57;;;;;;;2.05;1.40;;;;;;;19.40;100.00;98127.34;15284604;19;20015;-58
2022/06/05 22:50:02;;;;;;;1.90;1.02;;;;;;;19.17;100.00;98133.44;15275763;19;20007;-60
2022/06/05 22:55:09;;;;;;;1.90;1.30;;;;;;;19.00;100.00;98144.09;15284197;19;20030;-60
2022/06/05 23:00:19;;;;;;;1.88;1.25;;;;;;;18.82;100.00;98147.56;15281987;19;20010;-59
2022/06/05 23:05:25;;;;;;;1.85;1.40;;;;;;;18.57;100.00;98153.84;15283439;19;20014;-60
2022/06/05 23:10:30;;;;;;;2.13;1.33;;;;;;;18.50;100.00;98160.41;15286030;19;20035;-60
2022/06/05 23:15:38;;;;;;;1.83;1.30;;;;;;;18.37;100.00;98155.84;15282280;19;20069;-58
2022/06/05 23:20:43;;;;;;;2.65;1.35;;;;;;;18.25;100.00;98153.00;15270868;19;20010;-58
2022/06/05 23:25:48;;;;;;;1.65;1.27;;;;;;;18.17;100.00;98163.06;15258295;19;20011;-59
2022/06/05 23:30:56;;;;;;;1.23;1.10;;;;;;;18.14;100.00;98163.53;15284364;19;20028;-58
2022/06/05 23:36:05;;;;;;;1.55;1.10;;;;;;;18.10;100.00;98167.72;15281634;19;20495;-59
2022/06/05 23:41:13;;;;;;;3.25;1.10;;;;;;;18.08;100.00;98172.56;15279973;19;20031;-58
2022/06/05 23:46:24;;;;;;;1.90;1.13;;;;;;;18.10;100.00;98175.09;15280329;19;20028;-58
2022/06/05 23:51:30;;;;;;;0.82;0.82;;;;;;;18.04;100.00;98178.66;15281961;19;20031;-58
